Terminal Aerodrome Forecast
Issued by NWS

Home | Current Version | Previous Version | Text Only | Print | Product List | Glossary On
Versions: 1 2 3 4 5 6 7 8 9 10 11 12
000
FTUS45 KGJT 311736
TAFRIL
TAF
KRIL 311736Z 3118/0118 VRB02KT P6SM SCT150
     FM311900 25007KT P6SM SCT150
     FM010500 17003KT P6SM SCT100 BKN150=

USA.gov is the U.S. government's official web portal to all federal, state and local government web resources and services.